Time;durP1;ratioP1;P1;durP2;ratioP2;P2;SDS_P1;SDS_P2;PMS_P1;PMS_P2;Temp;Humidity;BMP_temperature;BMP_pressure;BME280_temperature;BME280_humidity;BME280_pressure;Samples;Min_cycle;Max_cycle;Signal;HPM_P1;HPM_P2
2023/09/11 00:01:13;;;;;;;9.73;8.90;;;20.20;99.90;;;;;;4992192;28;20176;-71
2023/09/11 00:03:39;;;;;;;9.70;8.90;;;20.30;99.90;;;;;;4990840;28;20517;-71
2023/09/11 00:06:06;;;;;;;11.33;10.27;;;20.20;99.90;;;;;;4993462;28;20932;-71
2023/09/11 00:08:32;;;;;;;12.97;9.80;;;20.20;99.90;;;;;;4992992;28;20215;-71
2023/09/11 00:10:58;;;;;;;9.20;8.50;;;20.50;99.90;;;;;;4994187;28;20442;-71
2023/09/11 00:13:24;;;;;;;10.73;9.73;;;20.20;99.90;;;;;;4994193;28;20461;-71
2023/09/11 00:15:49;;;;;;;11.77;10.80;;;20.10;99.90;;;;;;4993014;28;20443;-71
2023/09/11 00:18:15;;;;;;;10.27;9.47;;;20.10;99.90;;;;;;4993792;28;20223;-71
2023/09/11 00:20:40;;;;;;;11.20;10.17;;;20.00;99.90;;;;;;4993051;28;20218;-71
2023/09/11 00:23:08;;;;;;;12.57;10.70;;;20.00;99.90;;;;;;4992464;28;20195;-71
2023/09/11 00:25:36;;;;;;;12.60;10.83;;;20.00;99.90;;;;;;4995486;28;20186;-71
2023/09/11 00:28:02;;;;;;;10.20;9.30;;;20.00;99.90;;;;;;4999456;28;20950;-70
2023/09/11 00:30:28;;;;;;;11.23;10.07;;;19.90;99.90;;;;;;5005050;28;20936;-70
2023/09/11 00:32:54;;;;;;;10.23;9.43;;;19.90;99.90;;;;;;5008044;28;20469;-70
2023/09/11 00:35:19;;;;;;;14.63;9.73;;;19.90;99.90;;;;;;4995887;28;20200;-70
2023/09/11 00:37:45;;;;;;;11.60;9.63;;;19.90;99.90;;;;;;4994775;28;20207;-70
2023/09/11 00:40:11;;;;;;;9.63;8.80;;;19.90;99.90;;;;;;4994988;28;20187;-70
2023/09/11 00:42:36;;;;;;;9.20;8.50;;;19.90;99.90;;;;;;4997375;28;20179;-71
2023/09/11 00:45:02;;;;;;;10.43;9.53;;;20.10;99.90;;;;;;4999162;28;20233;-71
2023/09/11 00:47:28;;;;;;;11.33;9.23;;;19.80;99.90;;;;;;4988212;28;20195;-70
2023/09/11 00:49:55;;;;;;;10.73;9.63;;;19.80;99.90;;;;;;4994618;28;20282;-70
2023/09/11 00:52:21;;;;;;;10.47;9.57;;;19.80;99.90;;;;;;4994819;28;20440;-71
2023/09/11 00:54:47;;;;;;;9.87;8.90;;;19.70;99.90;;;;;;4993456;28;20534;-71
2023/09/11 00:57:17;;;;;;;9.43;8.73;;;19.70;99.90;;;;;;4993065;28;20556;-74
2023/09/11 00:59:44;;;;;;;9.50;8.80;;;19.70;99.90;;;;;;4990046;28;20459;-70
2023/09/11 01:02:11;;;;;;;10.00;9.20;;;19.70;99.90;;;;;;4993734;28;20439;-70
2023/09/11 01:04:37;;;;;;;11.23;10.33;;;19.70;99.90;;;;;;4988494;28;20489;-71
2023/09/11 01:07:03;;;;;;;10.50;9.60;;;19.70;99.90;;;;;;4996425;28;20434;-72
2023/09/11 01:09:28;;;;;;;10.70;9.80;;;19.70;99.90;;;;;;4992021;28;20647;-70
2023/09/11 01:11:54;;;;;;;10.10;9.30;;;19.60;99.90;;;;;;4993393;28;20211;-71
2023/09/11 01:14:19;;;;;;;11.17;10.17;;;19.60;99.90;;;;;;4993485;28;20186;-71
2023/09/11 01:16:51;;;;;;;9.80;9.00;;;19.70;99.90;;;;;;4992759;28;20696;-71
2023/09/11 01:20:08;;;;;;;10.60;9.60;;;19.60;99.90;;;;;;4992952;28;20665;-70
2023/09/11 01:22:56;;;;;;;14.53;12.27;;;19.60;99.90;;;;;;4991126;28;20449;-71
2023/09/11 01:26:04;;;;;;;10.90;9.90;;;19.50;99.90;;;;;;4989310;28;20939;-71
2023/09/11 01:29:03;;;;;;;11.97;10.77;;;19.50;99.90;;;;;;4992250;28;20454;-71
2023/09/11 01:31:31;;;;;;;11.07;10.17;;;19.50;99.90;;;;;;4993173;28;20469;-71
2023/09/11 01:34:01;;;;;;;10.60;9.70;;;19.50;99.90;;;;;;4992107;28;20825;-70
2023/09/11 01:36:27;;;;;;;10.97;9.10;;;19.50;99.90;;;;;;4993012;28;20542;-71
2023/09/11 01:38:54;;;;;;;10.23;9.27;;;19.50;99.90;;;;;;4991266;28;20454;-71
2023/09/11 01:41:20;;;;;;;11.33;10.43;;;19.50;99.90;;;;;;4992659;28;20214;-71
2023/09/11 01:43:47;;;;;;;11.20;10.00;;;19.50;99.90;;;;;;4990816;28;20749;-71
2023/09/11 01:46:17;;;;;;;11.67;10.70;;;19.50;99.90;;;;;;4990167;28;21113;-70
2023/09/11 01:48:44;;;;;;;11.63;10.73;;;19.50;99.90;;;;;;4990816;28;20450;-70
2023/09/11 01:51:12;;;;;;;11.30;10.20;;;19.40;99.90;;;;;;4992780;28;20464;-70
2023/09/11 01:53:39;;;;;;;12.37;11.30;;;19.40;99.90;;;;;;4993614;28;20434;-71
2023/09/11 01:56:04;;;;;;;13.13;10.57;;;19.40;99.90;;;;;;4991699;28;20438;-69
2023/09/11 01:58:32;;;;;;;11.30;10.37;;;19.40;99.90;;;;;;4993486;28;20461;-71
2023/09/11 02:00:57;;;;;;;12.63;10.40;;;19.40;99.90;;;;;;4993428;28;20222;-69
2023/09/11 02:03:23;;;;;;;12.30;11.10;;;19.40;99.90;;;;;;4999674;28;20500;-71
2023/09/11 02:05:48;;;;;;;12.13;10.63;;;19.60;99.90;;;;;;4993316;28;20202;-71
2023/09/11 02:08:14;;;;;;;11.80;10.60;;;19.30;99.90;;;;;;4993577;28;20257;-70
2023/09/11 02:10:39;;;;;;;11.40;10.30;;;19.20;99.90;;;;;;4995698;28;20194;-71
2023/09/11 02:13:05;;;;;;;12.53;10.97;;;19.20;99.90;;;;;;4991898;28;20579;-71
2023/09/11 02:15:30;;;;;;;12.23;10.13;;;19.10;99.90;;;;;;5003160;28;20191;-70
2023/09/11 02:17:56;;;;;;;10.97;9.70;;;19.10;99.90;;;;;;5002640;28;20366;-71
2023/09/11 02:20:21;;;;;;;12.77;11.67;;;19.00;99.90;;;;;;5001271;28;20175;-70
2023/09/11 02:22:47;;;;;;;11.53;10.43;;;19.00;99.90;;;;;;4990845;28;20214;-70
2023/09/11 02:25:12;;;;;;;12.20;11.10;;;19.10;99.90;;;;;;4987368;28;20271;-71
2023/09/11 02:27:38;;;;;;;11.83;10.60;;;19.00;99.90;;;;;;4995723;28;20182;-70
2023/09/11 02:30:04;;;;;;;12.30;11.30;;;19.00;99.90;;;;;;4997387;28;20209;-71
2023/09/11 02:32:30;;;;;;;13.80;10.80;;;18.90;99.90;;;;;;4991782;28;20191;-70
2023/09/11 02:34:55;;;;;;;11.10;10.20;;;18.90;99.90;;;;;;4988059;28;20807;-70
2023/09/11 02:37:21;;;;;;;13.00;11.90;;;19.00;99.90;;;;;;4992378;28;20200;-70
2023/09/11 02:39:46;;;;;;;15.63;11.70;;;19.00;99.90;;;;;;4990841;28;20210;-70
2023/09/11 02:42:12;;;;;;;11.70;10.60;;;19.00;99.90;;;;;;4991473;28;20385;-71
2023/09/11 02:44:37;;;;;;;11.67;10.63;;;19.00;99.90;;;;;;4987276;28;20545;-70
2023/09/11 02:47:05;;;;;;;12.70;11.53;;;19.10;99.90;;;;;;4991166;28;20549;-69
2023/09/11 02:49:30;;;;;;;10.80;9.90;;;19.10;99.90;;;;;;4991832;28;20258;-71
2023/09/11 02:51:56;;;;;;;12.33;10.60;;;19.10;99.90;;;;;;4989451;28;21046;-70
2023/09/11 02:54:21;;;;;;;12.23;11.10;;;19.00;99.90;;;;;;4990524;28;20326;-71
2023/09/11 02:56:47;;;;;;;12.10;11.10;;;18.90;99.90;;;;;;4989589;28;20214;-70
2023/09/11 02:59:12;;;;;;;13.20;11.90;;;18.80;99.90;;;;;;4991315;28;20196;-70
2023/09/11 03:01:38;;;;;;;12.47;11.17;;;18.70;99.90;;;;;;4991776;28;20661;-70
2023/09/11 03:04:03;;;;;;;11.03;9.87;;;18.70;99.90;;;;;;4987471;28;20183;-71
2023/09/11 03:06:30;;;;;;;12.97;11.77;;;18.60;99.90;;;;;;4988905;28;20184;-70
2023/09/11 03:08:56;;;;;;;11.03;10.13;;;18.70;99.90;;;;;;4989743;28;20219;-69
2023/09/11 03:11:22;;;;;;;10.90;10.10;;;18.70;99.90;;;;;;4992079;28;20585;-70
2023/09/11 03:13:49;;;;;;;12.07;11.17;;;18.70;99.90;;;;;;4990734;28;20688;-71
2023/09/11 03:16:15;;;;;;;12.37;11.17;;;18.70;99.90;;;;;;4988666;28;20230;-71
2023/09/11 03:18:41;;;;;;;12.30;11.30;;;18.70;99.90;;;;;;4991112;28;21051;-70
2023/09/11 03:21:07;;;;;;;11.10;10.00;;;19.00;99.90;;;;;;4989322;28;20521;-71
2023/09/11 03:23:34;;;;;;;11.97;10.97;;;18.70;99.90;;;;;;4990072;28;20810;-70
2023/09/11 03:25:59;;;;;;;11.83;10.83;;;18.60;99.90;;;;;;4988433;28;20242;-70
2023/09/11 03:28:30;;;;;;;13.43;12.10;;;18.60;99.90;;;;;;5000314;28;20833;-70
2023/09/11 03:30:56;;;;;;;13.57;11.60;;;18.60;99.90;;;;;;4992381;28;20163;-71
2023/09/11 03:33:22;;;;;;;12.47;11.27;;;18.50;99.90;;;;;;4991574;28;20430;-70
2023/09/11 03:35:47;;;;;;;11.97;10.53;;;18.50;99.90;;;;;;4994852;28;20439;-69
2023/09/11 03:38:13;;;;;;;12.60;11.50;;;18.50;99.90;;;;;;5004354;28;20221;-70
2023/09/11 03:40:39;;;;;;;12.93;11.57;;;18.50;99.90;;;;;;4981624;28;20226;-71
2023/09/11 03:43:05;;;;;;;12.60;11.60;;;18.50;99.90;;;;;;5003974;28;20422;-71
2023/09/11 03:45:30;;;;;;;13.77;12.40;;;18.40;99.90;;;;;;4993668;28;20174;-71
2023/09/11 03:47:56;;;;;;;13.63;12.40;;;18.40;99.90;;;;;;4993345;28;20191;-71
2023/09/11 03:50:21;;;;;;;13.60;11.00;;;18.30;99.90;;;;;;4999735;28;20195;-71
2023/09/11 03:52:47;;;;;;;13.10;12.10;;;18.30;99.90;;;;;;5006850;28;20651;-70
2023/09/11 03:55:12;;;;;;;13.07;11.80;;;18.20;99.90;;;;;;5012910;28;20190;-70
2023/09/11 03:57:38;;;;;;;12.73;11.70;;;18.20;99.90;;;;;;5002877;28;20303;-71
2023/09/11 04:00:07;;;;;;;13.90;12.80;;;18.10;99.90;;;;;;4995605;28;20188;-70
2023/09/11 04:02:33;;;;;;;12.60;11.40;;;18.10;99.90;;;;;;4997698;28;20266;-70
2023/09/11 04:04:59;;;;;;;12.50;11.40;;;18.00;99.90;;;;;;4996101;28;20533;-70
2023/09/11 04:07:24;;;;;;;13.00;12.00;;;17.90;99.90;;;;;;4993475;28;20176;-70
2023/09/11 04:09:50;;;;;;;12.57;11.43;;;17.90;99.90;;;;;;4993905;28;20298;-71
2023/09/11 04:12:16;;;;;;;12.27;11.07;;;17.80;99.90;;;;;;4992856;28;20188;-70
2023/09/11 04:14:43;;;;;;;14.37;12.97;;;17.80;99.90;;;;;;4994493;28;20641;-71
2023/09/11 04:17:10;;;;;;;12.40;11.10;;;17.80;99.90;;;;;;4996645;28;20991;-70
2023/09/11 04:19:36;;;;;;;13.43;12.17;;;17.80;99.90;;;;;;4993598;28;20462;-70
2023/09/11 04:22:04;;;;;;;15.20;14.00;;;17.80;99.90;;;;;;4991697;28;20442;-71
2023/09/11 04:24:30;;;;;;;15.30;13.70;;;17.70;99.90;;;;;;4989035;28;20880;-70
2023/09/11 04:26:55;;;;;;;14.83;13.53;;;17.70;99.90;;;;;;4991189;28;20477;-70
2023/09/11 04:29:21;;;;;;;14.13;12.83;;;17.70;99.90;;;;;;4994114;28;20677;-71
2023/09/11 04:31:47;;;;;;;13.40;12.20;;;17.60;99.90;;;;;;4998863;28;20561;-71
2023/09/11 04:34:12;;;;;;;15.33;14.00;;;17.60;99.90;;;;;;4992757;28;20191;-70
2023/09/11 04:36:37;;;;;;;14.10;12.90;;;17.50;99.90;;;;;;4992287;28;20215;-70
2023/09/11 04:39:06;;;;;;;13.07;11.87;;;17.50;99.90;;;;;;5002014;28;20183;-70
2023/09/11 04:41:31;;;;;;;15.03;12.50;;;17.50;99.90;;;;;;5003232;28;20170;-70
2023/09/11 04:43:57;;;;;;;13.37;12.30;;;17.40;99.90;;;;;;4993836;28;20427;-70
2023/09/11 04:46:23;;;;;;;12.20;11.13;;;17.40;99.90;;;;;;4989154;28;20168;-70
2023/09/11 04:48:48;;;;;;;14.63;13.23;;;17.40;99.90;;;;;;4993937;28;20257;-71
2023/09/11 04:51:14;;;;;;;14.97;13.17;;;17.50;99.90;;;;;;5010949;28;20652;-69
2023/09/11 04:53:39;;;;;;;13.67;12.57;;;17.50;99.90;;;;;;5001861;28;20468;-70
2023/09/11 04:56:05;;;;;;;14.27;12.87;;;17.60;99.90;;;;;;5004597;28;20207;-69
2023/09/11 04:58:30;;;;;;;14.10;12.90;;;17.60;99.90;;;;;;4995985;28;20207;-70
2023/09/11 05:00:56;;;;;;;14.17;12.70;;;17.60;99.90;;;;;;4998071;28;20180;-71
2023/09/11 05:03:21;;;;;;;18.77;16.87;;;17.70;99.90;;;;;;4992080;28;20615;-69
2023/09/11 05:05:50;;;;;;;17.53;15.90;;;17.70;99.90;;;;;;4990636;28;20175;-70
2023/09/11 05:08:16;;;;;;;16.60;14.10;;;17.70;99.90;;;;;;4997025;28;20258;-69
2023/09/11 05:10:42;;;;;;;17.70;16.00;;;17.70;99.90;;;;;;4990374;28;20538;-70
2023/09/11 05:13:08;;;;;;;15.67;14.23;;;17.70;99.90;;;;;;4993965;28;20219;-69
2023/09/11 05:15:33;;;;;;;13.47;12.07;;;17.80;99.90;;;;;;4994647;28;20481;-69
2023/09/11 05:17:59;;;;;;;13.63;12.33;;;17.80;99.90;;;;;;4993922;28;20658;-69
2023/09/11 05:20:24;;;;;;;13.47;12.30;;;17.90;99.90;;;;;;4992086;28;20653;-69
2023/09/11 05:22:50;;;;;;;12.97;11.87;;;18.00;99.90;;;;;;4992758;28;20191;-69
2023/09/11 05:25:15;;;;;;;13.20;11.90;;;18.10;99.90;;;;;;4998620;28;20266;-69
2023/09/11 05:27:41;;;;;;;13.40;12.20;;;18.20;99.90;;;;;;5003348;28;20330;-69
2023/09/11 05:30:07;;;;;;;14.23;13.00;;;18.30;99.90;;;;;;4989231;28;20194;-69
2023/09/11 05:32:32;;;;;;;14.33;13.10;;;18.40;99.90;;;;;;4988791;28;20179;-70
2023/09/11 05:34:58;;;;;;;14.90;13.60;;;18.40;99.90;;;;;;4991776;28;20440;-70
2023/09/11 05:37:24;;;;;;;14.13;12.93;;;18.60;99.90;;;;;;5001912;28;20207;-70
2023/09/11 05:39:49;;;;;;;13.87;12.20;;;18.70;99.90;;;;;;4993724;28;20188;-70
2023/09/11 05:42:15;;;;;;;14.30;13.00;;;18.80;99.90;;;;;;4986207;28;20180;-69
2023/09/11 05:44:40;;;;;;;13.10;11.90;;;18.90;99.90;;;;;;4989098;28;20171;-68
2023/09/11 05:47:07;;;;;;;14.20;13.00;;;19.10;99.90;;;;;;4990828;28;20220;-69
2023/09/11 05:49:33;;;;;;;12.83;11.50;;;19.20;99.90;;;;;;4996957;28;20206;-69
2023/09/11 05:51:59;;;;;;;16.93;12.70;;;19.40;99.90;;;;;;4993740;28;20841;-70
2023/09/11 05:54:24;;;;;;;14.50;12.57;;;19.50;99.90;;;;;;4982874;28;20188;-68
2023/09/11 05:56:50;;;;;;;14.57;13.07;;;19.70;99.90;;;;;;4992759;28;20250;-67
2023/09/11 05:59:19;;;;;;;16.17;12.83;;;19.90;99.90;;;;;;4993371;28;20266;-67
2023/09/11 06:01:48;;;;;;;13.13;12.03;;;20.10;99.90;;;;;;4993432;28;20168;-68
2023/09/11 06:04:14;;;;;;;14.47;13.00;;;20.30;99.90;;;;;;4993103;28;20502;-68
2023/09/11 06:06:40;;;;;;;14.60;13.23;;;20.50;99.90;;;;;;4984518;28;20521;-68
2023/09/11 06:09:08;;;;;;;14.47;13.17;;;20.70;99.90;;;;;;4993155;28;20215;-67
2023/09/11 06:11:34;;;;;;;13.83;12.37;;;20.70;99.90;;;;;;4992336;28;20168;-68
2023/09/11 06:13:59;;;;;;;14.73;13.23;;;20.70;99.90;;;;;;4990518;28;20454;-68
2023/09/11 06:16:25;;;;;;;17.90;15.83;;;20.70;99.90;;;;;;4988685;28;20423;-68
2023/09/11 06:18:50;;;;;;;16.00;14.30;;;20.80;99.90;;;;;;4983397;28;20184;-68
2023/09/11 06:21:16;;;;;;;14.40;13.20;;;20.80;99.90;;;;;;4982665;28;20175;-68
2023/09/11 06:23:41;;;;;;;13.57;12.27;;;20.90;99.90;;;;;;4986665;28;20183;-69
2023/09/11 06:26:07;;;;;;;13.00;11.70;;;21.00;99.90;;;;;;4981535;28;20401;-69
2023/09/11 06:28:32;;;;;;;14.87;13.40;;;21.10;99.90;;;;;;4973642;28;20192;-69
2023/09/11 06:30:59;;;;;;;12.93;11.80;;;21.20;99.90;;;;;;4973639;28;20231;-68
2023/09/11 06:33:27;;;;;;;13.97;12.67;;;21.40;99.90;;;;;;4973315;28;20537;-69
2023/09/11 06:35:53;;;;;;;14.67;12.30;;;21.60;99.90;;;;;;4984240;28;20449;-69
2023/09/11 06:38:19;;;;;;;12.27;11.13;;;22.00;99.90;;;;;;4989350;28;20466;-69
2023/09/11 06:40:44;;;;;;;11.73;10.57;;;22.40;99.90;;;;;;4992759;28;20477;-69
2023/09/11 06:43:10;;;;;;;11.70;10.67;;;22.80;99.90;;;;;;4992404;28;20199;-69
2023/09/11 06:45:35;;;;;;;16.53;11.63;;;23.10;99.90;;;;;;4991220;28;20176;-69
2023/09/11 06:48:02;;;;;;;12.53;11.40;;;23.40;99.90;;;;;;4984333;28;20203;-69
2023/09/11 06:50:28;;;;;;;14.70;11.77;;;23.60;99.90;;;;;;4991291;28;20629;-69
2023/09/11 06:52:53;;;;;;;14.00;12.37;;;23.80;99.90;;;;;;4992378;28;20423;-69
2023/09/11 06:55:19;;;;;;;13.77;10.83;;;23.90;99.90;;;;;;4992318;28;20438;-70
2023/09/11 06:57:58;;;;;;;13.00;11.80;;;24.10;99.90;;;;;;4991328;28;20199;-69
2023/09/11 07:00:24;;;;;;;12.80;10.97;;;24.40;99.90;;;;;;4992211;28;20171;-69
2023/09/11 07:02:50;;;;;;;12.30;11.00;;;24.60;99.90;;;;;;4992295;28;20419;-69
2023/09/11 07:05:16;;;;;;;14.17;11.57;;;25.00;99.90;;;;;;4992470;28;20414;-69
2023/09/11 07:07:42;;;;;;;11.47;10.47;;;25.10;99.90;;;;;;4990851;28;20184;-70
2023/09/11 07:10:11;;;;;;;12.03;10.27;;;25.20;99.90;;;;;;4983943;28;20426;-69
2023/09/11 07:12:38;;;;;;;13.43;10.80;;;25.40;99.90;;;;;;4992089;28;20274;-69
2023/09/11 07:15:05;;;;;;;11.83;10.87;;;25.10;99.90;;;;;;4992213;28;21138;-69
2023/09/11 07:17:31;;;;;;;12.40;11.20;;;25.10;99.90;;;;;;4991264;28;20616;-69
2023/09/11 07:19:56;;;;;;;12.47;11.27;;;25.30;99.90;;;;;;4984082;28;20522;-69
2023/09/11 07:22:22;;;;;;;12.23;11.23;;;25.60;99.90;;;;;;4992235;28;20553;-70
2023/09/11 07:24:47;;;;;;;11.20;10.17;;;25.80;99.90;;;;;;4991999;28;20672;-69
2023/09/11 07:27:13;;;;;;;12.97;11.73;;;26.00;99.90;;;;;;4990957;28;20668;-68
2023/09/11 07:29:40;;;;;;;13.83;11.50;;;26.20;99.90;;;;;;4991253;28;20791;-67
2023/09/11 07:32:06;;;;;;;12.60;11.50;;;26.40;99.90;;;;;;4984157;28;20262;-69
2023/09/11 07:34:31;;;;;;;11.13;10.03;;;26.50;99.90;;;;;;4991504;28;20513;-70
2023/09/11 07:36:57;;;;;;;11.63;10.53;;;26.50;99.90;;;;;;4991219;28;20455;-69
2023/09/11 07:39:22;;;;;;;11.50;10.30;;;26.70;99.90;;;;;;4992007;28;20188;-69
2023/09/11 07:41:48;;;;;;;12.17;11.07;;;26.50;99.90;;;;;;4990863;28;20180;-69
2023/09/11 07:44:14;;;;;;;12.67;11.57;;;26.90;99.90;;;;;;4984124;28;20172;-69
2023/09/11 07:46:39;;;;;;;11.13;10.23;;;26.90;99.90;;;;;;4983124;28;20642;-69
2023/09/11 07:49:05;;;;;;;14.57;11.90;;;27.20;99.90;;;;;;4991930;28;20676;-69
2023/09/11 07:51:30;;;;;;;13.17;10.90;;;27.50;99.90;;;;;;4992135;28;20170;-69
2023/09/11 07:53:56;;;;;;;11.73;10.80;;;27.90;99.90;;;;;;4991191;28;20664;-69
2023/09/11 07:56:22;;;;;;;10.90;9.97;;;28.20;99.90;;;;;;4983687;28;20183;-69
2023/09/11 07:58:50;;;;;;;12.43;11.27;;;28.10;99.90;;;;;;4991819;28;20435;-70
2023/09/11 08:01:18;;;;;;;12.53;11.10;;;28.00;99.90;;;;;;4992017;28;20259;-69
2023/09/11 08:03:44;;;;;;;11.80;10.80;;;28.50;99.90;;;;;;4991650;28;20423;-69
2023/09/11 08:06:10;;;;;;;13.70;10.80;;;28.90;99.90;;;;;;4991109;28;20441;-69
2023/09/11 08:08:36;;;;;;;13.23;10.50;;;29.50;99.90;;;;;;4983550;28;20474;-70
2023/09/11 08:11:16;;;;;;;12.60;10.27;;;29.90;99.90;;;;;;4991786;28;20688;-69
2023/09/11 08:13:42;;;;;;;11.10;10.10;;;30.40;99.70;;;;;;4991560;28;20427;-70
2023/09/11 08:16:08;;;;;;;10.27;9.43;;;30.40;98.80;;;;;;4990783;28;20439;-70
2023/09/11 08:18:34;;;;;;;12.00;10.60;;;30.40;98.70;;;;;;4983425;28;20474;-70
2023/09/11 08:20:59;;;;;;;12.43;11.17;;;30.20;98.50;;;;;;4991675;28;20422;-70
2023/09/11 08:23:25;;;;;;;10.20;8.93;;;30.70;97.50;;;;;;4988017;28;20195;-70
2023/09/11 08:25:56;;;;;;;12.00;10.90;;;31.00;97.00;;;;;;4985577;28;20654;-70
2023/09/11 08:28:21;;;;;;;16.20;10.20;;;31.00;97.10;;;;;;4986847;28;20204;-70
2023/09/11 08:30:47;;;;;;;14.53;11.60;;;31.00;96.70;;;;;;4995134;28;20442;-70
2023/09/11 08:33:12;;;;;;;10.70;9.90;;;31.10;95.60;;;;;;4994753;28;20180;-70
2023/09/11 08:35:38;;;;;;;11.50;10.37;;;31.50;95.70;;;;;;4995122;28;20255;-70
2023/09/11 08:38:03;;;;;;;11.70;10.10;;;31.80;94.80;;;;;;4993839;28;20223;-70
2023/09/11 08:40:33;;;;;;;12.17;11.07;;;32.10;94.40;;;;;;4986489;28;20180;-70
2023/09/11 08:42:59;;;;;;;11.87;10.67;;;32.30;93.50;;;;;;4993671;28;20538;-70
2023/09/11 08:45:26;;;;;;;13.17;11.87;;;32.20;92.50;;;;;;4995270;28;20451;-70
2023/09/11 08:47:55;;;;;;;11.00;10.10;;;32.40;92.40;;;;;;4985854;28;20448;-70
2023/09/11 08:50:27;;;;;;;10.97;10.07;;;33.00;91.40;;;;;;4994646;28;20485;-70
2023/09/11 08:52:53;;;;;;;12.23;11.00;;;32.60;90.90;;;;;;4994427;28;20431;-70
2023/09/11 08:55:20;;;;;;;11.27;10.20;;;32.60;90.50;;;;;;4994706;28;20419;-70
2023/09/11 08:57:46;;;;;;;12.80;10.60;;;33.20;88.50;;;;;;4985356;28;20481;-70
2023/09/11 09:00:13;;;;;;;16.37;9.50;;;33.10;88.00;;;;;;4994471;28;20435;-70
2023/09/11 09:02:39;;;;;;;11.67;10.47;;;33.70;86.90;;;;;;4994352;28;20226;-70
2023/09/11 09:05:06;;;;;;;13.83;11.43;;;34.60;82.90;;;;;;4994422;28;20470;-70
2023/09/11 09:07:32;;;;;;;10.30;9.20;;;34.60;80.50;;;;;;4994082;28;20175;-70
2023/09/11 09:09:59;;;;;;;11.10;10.20;;;35.10;78.40;;;;;;4985469;28;20581;-70
2023/09/11 09:12:26;;;;;;;11.00;10.00;;;35.40;76.70;;;;;;4993971;28;20509;-71
2023/09/11 09:14:52;;;;;;;11.17;10.10;;;35.70;74.60;;;;;;4994025;28;20425;-70
2023/09/11 09:17:17;;;;;;;10.80;9.70;;;36.30;70.70;;;;;;4994001;28;20959;-71
2023/09/11 09:19:43;;;;;;;9.80;9.00;;;36.20;69.70;;;;;;4993709;28;20295;-70
2023/09/11 09:22:09;;;;;;;11.23;9.93;;;36.70;65.90;;;;;;4985472;28;20191;-68
2023/09/11 09:24:37;;;;;;;11.20;10.30;;;37.40;64.20;;;;;;4993678;28;20221;-68
2023/09/11 09:27:05;;;;;;;11.87;10.77;;;38.00;62.50;;;;;;4994430;28;20554;-70
2023/09/11 09:29:38;;;;;;;10.30;9.30;;;37.20;59.60;;;;;;4993928;28;20537;-70
2023/09/11 09:32:07;;;;;;;9.10;8.30;;;37.60;59.70;;;;;;4988346;28;20427;-70
2023/09/11 09:34:34;;;;;;;9.03;8.33;;;38.60;58.40;;;;;;4992277;28;20427;-68
2023/09/11 09:37:00;;;;;;;9.27;8.40;;;39.20;55.50;;;;;;4993593;28;20481;-66
2023/09/11 09:39:29;;;;;;;9.20;8.30;;;39.20;55.30;;;;;;4993733;28;20473;-66
2023/09/11 09:42:00;;;;;;;9.90;9.00;;;38.80;55.60;;;;;;4993821;28;20427;-69
2023/09/11 09:44:34;;;;;;;8.87;8.17;;;39.70;54.20;;;;;;4989161;28;20439;-70
2023/09/11 09:47:06;;;;;;;10.23;9.43;;;40.50;51.90;;;;;;4992176;28;20678;-70
2023/09/11 09:49:41;;;;;;;11.13;8.60;;;40.10;50.70;;;;;;4993537;28;20473;-70
2023/09/11 09:52:06;;;;;;;8.80;8.03;;;39.10;51.40;;;;;;4993451;28;20591;-69
2023/09/11 09:54:50;;;;;;;12.43;9.70;;;38.70;51.80;;;;;;4993269;28;20419;-69
2023/09/11 09:57:17;;;;;;;9.87;9.17;;;37.50;52.90;;;;;;4991289;28;20355;-67
2023/09/11 09:59:48;;;;;;;13.20;8.90;;;38.40;51.30;;;;;;4993431;28;20529;-67
2023/09/11 10:02:13;;;;;;;9.40;8.63;;;38.40;51.20;;;;;;4993447;28;20423;-68
2023/09/11 10:04:39;;;;;;;9.93;9.23;;;38.50;51.30;;;;;;4993624;28;20756;-70
2023/09/11 10:07:06;;;;;;;11.03;9.57;;;39.60;50.60;;;;;;4992203;28;20183;-69
2023/09/11 10:09:33;;;;;;;10.03;9.00;;;40.20;48.90;;;;;;4983364;28;20212;-69
2023/09/11 10:12:04;;;;;;;10.10;9.17;;;39.60;49.30;;;;;;4979805;28;20450;-69
2023/09/11 10:14:30;;;;;;;9.50;8.33;;;39.50;48.20;;;;;;4973531;28;20416;-68
2023/09/11 10:16:58;;;;;;;10.33;9.43;;;38.70;49.60;;;;;;4973747;28;20953;-68
2023/09/11 10:19:27;;;;;;;9.17;8.37;;;38.10;49.70;;;;;;4975974;28;20557;-68
2023/09/11 10:21:53;;;;;;;9.30;8.50;;;38.10;49.90;;;;;;4986884;28;20443;-68
2023/09/11 10:24:18;;;;;;;8.67;8.00;;;38.60;50.00;;;;;;4992676;28;20453;-68
2023/09/11 10:26:52;;;;;;;9.23;8.43;;;40.30;48.60;;;;;;4993372;28;20188;-68
2023/09/11 10:29:27;;;;;;;8.37;7.67;;;42.00;46.30;;;;;;4992949;28;20191;-68
2023/09/11 10:32:01;;;;;;;8.00;7.30;;;42.50;45.10;;;;;;4983726;28;20443;-66
2023/09/11 10:34:27;;;;;;;8.80;8.00;;;43.30;43.60;;;;;;4984296;28;20441;-66
2023/09/11 10:36:57;;;;;;;9.67;8.80;;;43.70;42.60;;;;;;4992606;28;21054;-66
2023/09/11 10:39:22;;;;;;;8.33;7.57;;;44.50;41.30;;;;;;4992545;28;21004;-66
2023/09/11 10:41:48;;;;;;;8.70;8.07;;;44.70;40.50;;;;;;4992822;28;20446;-66
2023/09/11 10:44:15;;;;;;;8.30;7.60;;;44.90;40.00;;;;;;4982607;28;20226;-65
2023/09/11 10:46:50;;;;;;;9.80;9.10;;;44.70;39.10;;;;;;4992702;28;20172;-65
2023/09/11 10:49:17;;;;;;;8.63;8.03;;;44.70;38.50;;;;;;4989542;28;20462;-65
2023/09/11 10:51:45;;;;;;;9.10;8.10;;;44.80;38.50;;;;;;4983525;28;20439;-66
2023/09/11 10:54:16;;;;;;;10.23;9.37;;;45.10;38.50;;;;;;4988485;28;20444;-66
2023/09/11 10:56:42;;;;;;;10.40;9.43;;;44.90;37.70;;;;;;4992559;28;20458;-66
2023/09/11 10:59:09;;;;;;;9.30;8.07;;;45.10;37.40;;;;;;4984270;28;20455;-69
2023/09/11 11:01:36;;;;;;;9.03;8.33;;;45.40;36.70;;;;;;4980292;28;21067;-65
2023/09/11 11:04:06;;;;;;;9.53;8.60;;;45.00;36.60;;;;;;4981005;28;20424;-65
2023/09/11 11:06:33;;;;;;;8.00;7.20;;;44.50;37.30;;;;;;4979920;28;20423;-66
2023/09/11 11:08:59;;;;;;;9.20;8.40;;;45.70;36.20;;;;;;4978124;28;20467;-65
2023/09/11 11:11:30;;;;;;;9.77;9.10;;;45.70;36.10;;;;;;4990273;28;20450;-65
2023/09/11 11:14:12;;;;;;;12.70;8.20;;;45.90;35.20;;;;;;4992151;28;20433;-65
2023/09/11 11:16:38;;;;;;;10.40;9.50;;;46.10;34.90;;;;;;4991853;28;20426;-65
2023/09/11 11:19:04;;;;;;;9.70;8.87;;;46.10;33.90;;;;;;4986254;28;20549;-65
2023/09/11 11:21:40;;;;;;;10.27;8.10;;;46.60;33.80;;;;;;4992307;28;20442;-65
2023/09/11 11:24:09;;;;;;;9.00;8.10;;;46.80;33.90;;;;;;4992062;28;20497;-65
2023/09/11 11:26:40;;;;;;;9.23;8.50;;;46.80;33.40;;;;;;4992266;28;20411;-65
2023/09/11 11:29:06;;;;;;;9.53;8.73;;;46.70;33.00;;;;;;4990794;28;20482;-65
2023/09/11 11:31:32;;;;;;;12.60;7.77;;;47.10;32.50;;;;;;4986508;28;20918;-66
2023/09/11 11:33:59;;;;;;;8.70;7.87;;;46.90;32.20;;;;;;4983844;28;20629;-65
2023/09/11 11:36:26;;;;;;;8.27;7.47;;;45.90;32.20;;;;;;4992091;28;20171;-66
2023/09/11 11:38:55;;;;;;;9.03;8.20;;;45.70;32.60;;;;;;4992198;28;20442;-65
2023/09/11 11:41:22;;;;;;;10.53;8.63;;;46.30;32.80;;;;;;4992111;28;20441;-65
2023/09/11 11:43:47;;;;;;;9.13;8.23;;;46.30;32.20;;;;;;4981967;28;20449;-66
2023/09/11 11:46:15;;;;;;;10.00;9.10;;;46.10;32.00;;;;;;4992000;28;20414;-66
2023/09/11 11:48:42;;;;;;;9.60;8.90;;;47.60;31.70;;;;;;4991980;28;20191;-66
2023/09/11 11:51:08;;;;;;;9.90;9.10;;;46.70;31.20;;;;;;4991557;28;20434;-65
2023/09/11 11:53:33;;;;;;;11.33;10.10;;;48.00;31.20;;;;;;4982719;28;21002;-66
2023/09/11 11:56:03;;;;;;;9.40;8.43;;;48.20;30.20;;;;;;4993520;28;20182;-65
2023/09/11 11:58:28;;;;;;;9.90;8.47;;;48.20;30.10;;;;;;4995616;28;20249;-65
2023/09/11 12:00:58;;;;;;;9.10;8.30;;;47.90;30.00;;;;;;4994463;28;20959;-66
2023/09/11 12:03:25;;;;;;;9.00;8.10;;;48.50;29.70;;;;;;4987150;28;20186;-65
2023/09/11 12:05:51;;;;;;;10.83;9.67;;;48.00;29.60;;;;;;4995370;28;20790;-65
2023/09/11 12:08:17;;;;;;;9.77;8.90;;;47.70;29.40;;;;;;4981379;28;21022;-66
2023/09/11 12:10:50;;;;;;;8.40;7.67;;;47.10;29.60;;;;;;4975880;28;20463;-65
2023/09/11 12:13:17;;;;;;;9.00;8.40;;;47.30;29.60;;;;;;4987136;28;20230;-66
2023/09/11 12:15:43;;;;;;;9.10;8.27;;;47.70;29.30;;;;;;4995352;28;20426;-65
2023/09/11 12:18:12;;;;;;;9.83;8.87;;;47.70;29.30;;;;;;4995342;28;20442;-65
2023/09/11 12:20:38;;;;;;;9.40;8.50;;;48.00;29.10;;;;;;4995349;28;20174;-65
2023/09/11 12:23:03;;;;;;;10.43;8.60;;;48.00;28.40;;;;;;4994047;28;20800;-65
2023/09/11 12:25:29;;;;;;;9.90;8.23;;;48.20;28.60;;;;;;4987038;28;20178;-66
2023/09/11 12:27:55;;;;;;;9.03;8.10;;;47.40;28.50;;;;;;4995260;28;20253;-65
2023/09/11 12:30:21;;;;;;;9.17;7.90;;;48.30;28.20;;;;;;4995238;28;20625;-65
2023/09/11 12:32:46;;;;;;;8.63;8.03;;;48.00;28.20;;;;;;4994805;28;20179;-65